createdAt,value
2022-09-28T00:03:09.852Z,99.90
2022-09-28T00:08:11.666Z,99.90
2022-09-28T00:13:13.523Z,99.90
2022-09-28T00:18:15.310Z,99.90
2022-09-28T00:23:17.109Z,99.90
2022-09-28T00:28:18.917Z,99.90
2022-09-28T00:33:20.978Z,99.90
2022-09-28T00:38:27.408Z,99.90
2022-09-28T00:43:29.862Z,99.90
2022-09-28T00:48:36.260Z,99.90
2022-09-28T00:53:42.976Z,99.90
2022-09-28T00:58:49.930Z,99.90
2022-09-28T01:03:55.423Z,99.90
2022-09-28T01:09:04.325Z,99.90
2022-09-28T01:14:09.167Z,99.90
2022-09-28T01:20:06.472Z,99.90
2022-09-28T01:25:25.132Z,99.90
2022-09-28T01:30:26.999Z,99.90
2022-09-28T01:35:36.355Z,99.90
2022-09-28T01:40:39.325Z,99.90
2022-09-28T01:45:47.822Z,99.90
2022-09-28T01:50:55.692Z,99.90
2022-09-28T01:56:02.983Z,99.90
2022-09-28T02:01:13.129Z,99.90
2022-09-28T02:06:28.054Z,99.90
2022-09-28T02:11:30.963Z,99.90
2022-09-28T02:16:50.985Z,99.90
2022-09-28T02:22:02.611Z,99.90
2022-09-28T02:27:25.683Z,99.90
2022-09-28T02:32:28.780Z,99.90
2022-09-28T02:37:30.782Z,99.90
2022-09-28T02:43:01.470Z,99.90
2022-09-28T02:48:43.538Z,99.90
2022-09-28T02:54:16.639Z,99.90
2022-09-28T02:59:36.543Z,99.90
2022-09-28T03:04:53.427Z,99.90
2022-09-28T03:10:12.561Z,99.90
2022-09-28T03:15:20.104Z,99.90
2022-09-28T03:20:22.461Z,99.90
2022-09-28T03:25:24.439Z,99.90
2022-09-28T03:30:26.274Z,99.90
2022-09-28T03:35:28.139Z,99.90
2022-09-28T03:40:30.151Z,99.90
2022-09-28T03:45:32.194Z,99.90
2022-09-28T03:50:34.114Z,99.90
2022-09-28T03:55:36.020Z,99.90
2022-09-28T04:00:41.016Z,99.90
2022-09-28T04:05:50.438Z,99.90
2022-09-28T04:10:55.487Z,99.90
2022-09-28T04:16:00.269Z,99.90
2022-09-28T04:21:07.392Z,99.90
2022-09-28T04:26:20.114Z,99.90
2022-09-28T04:31:24.566Z,99.90
2022-09-28T04:36:26.482Z,99.90
2022-09-28T04:41:28.364Z,99.90
2022-09-28T04:46:31.077Z,99.90
2022-09-28T04:51:51.636Z,99.90
2022-09-28T04:56:54.239Z,99.90
2022-09-28T05:01:56.196Z,99.90
2022-09-28T05:07:17.133Z,99.90
2022-09-28T05:12:19.066Z,99.90
2022-09-28T05:17:20.863Z,99.90
2022-09-28T05:22:41.463Z,99.90
2022-09-28T05:27:44.544Z,99.90
2022-09-28T05:33:03.275Z,99.90
2022-09-28T05:38:20.433Z,99.90
2022-09-28T05:43:22.709Z,99.90
2022-09-28T05:48:25.230Z,99.90
2022-09-28T05:53:27.602Z,99.90
2022-09-28T05:58:29.453Z,99.90
2022-09-28T06:03:32.769Z,99.90
2022-09-28T06:08:35.386Z,99.90
2022-09-28T06:13:55.990Z,99.90
2022-09-28T06:18:59.780Z,99.90
2022-09-28T06:24:13.631Z,99.90
2022-09-28T06:29:19.794Z,99.90
2022-09-28T06:34:23.059Z,99.90
2022-09-28T06:39:24.933Z,99.90
2022-09-28T06:44:26.962Z,99.90
2022-09-28T06:49:48.730Z,99.90
2022-09-28T06:55:16.520Z,99.90
2022-09-28T07:00:19.834Z,99.90
2022-09-28T07:05:26.770Z,99.90
2022-09-28T07:10:49.609Z,99.90
2022-09-28T07:16:03.603Z,99.90
2022-09-28T07:21:09.579Z,99.90
2022-09-28T07:26:20.422Z,99.90
2022-09-28T07:31:47.309Z,99.90
2022-09-28T07:37:12.753Z,99.90
2022-09-28T07:42:15.957Z,99.90
2022-09-28T07:47:30.849Z,99.90
2022-09-28T07:52:57.492Z,99.90
2022-09-28T07:58:06.637Z,99.90
2022-09-28T08:03:25.309Z,99.90
2022-09-28T08:08:31.992Z,99.90
2022-09-28T08:13:34.493Z,99.90
2022-09-28T08:18:57.049Z,99.90
2022-09-28T08:23:59.636Z,99.90
2022-09-28T08:29:02.335Z,99.90
2022-09-28T08:34:19.704Z,99.90
2022-09-28T08:39:41.088Z,99.90
2022-09-28T08:45:16.445Z,99.90
2022-09-28T08:50:38.293Z,99.90
2022-09-28T08:56:14.367Z,99.90
2022-09-28T09:01:20.597Z,99.90
2022-09-28T09:06:32.869Z,99.90
2022-09-28T09:12:01.597Z,99.90
2022-09-28T09:17:27.097Z,99.90
2022-09-28T09:22:58.348Z,99.90
2022-09-28T09:28:29.935Z,99.90
2022-09-28T09:33:55.082Z,99.90
2022-09-28T09:40:04.019Z,99.90
2022-09-28T09:45:49.951Z,99.90
2022-09-28T09:51:19.961Z,99.90
2022-09-28T09:56:38.818Z,98.20
2022-09-28T10:01:48.046Z,92.00
2022-09-28T10:07:06.257Z,92.30
2022-09-28T10:12:15.887Z,95.10
2022-09-28T10:17:26.907Z,93.80
2022-09-28T10:22:53.969Z,96.20
2022-09-28T10:27:59.013Z,95.00
2022-09-28T10:33:02.009Z,93.80
2022-09-28T10:38:19.343Z,94.20
2022-09-28T10:43:46.559Z,99.90
2022-09-28T10:48:52.689Z,99.00
2022-09-28T10:54:03.889Z,99.90
2022-09-28T10:59:30.749Z,99.10
2022-09-28T11:05:24.340Z,99.90
2022-09-28T11:10:33.181Z,98.00
2022-09-28T11:15:46.210Z,99.30
2022-09-28T11:21:15.857Z,99.90
2022-09-28T11:26:36.768Z,99.50
2022-09-28T11:31:41.066Z,98.60
2022-09-28T11:37:01.955Z,98.60
2022-09-28T11:42:18.657Z,95.40
2022-09-28T11:47:47.949Z,97.10
2022-09-28T11:53:30.749Z,95.80
2022-09-28T11:58:44.747Z,94.60
2022-09-28T12:03:57.884Z,95.60
2022-09-28T12:09:09.588Z,94.90
2022-09-28T12:14:36.045Z,95.30
2022-09-28T12:20:03.956Z,97.40
2022-09-28T12:25:13.487Z,97.90
2022-09-28T12:30:19.796Z,99.90
2022-09-28T12:36:00.344Z,98.30
2022-09-28T12:41:16.978Z,97.70
2022-09-28T12:47:00.551Z,96.90
2022-09-28T12:52:23.496Z,97.40
2022-09-28T12:57:41.242Z,99.20
2022-09-28T13:02:55.530Z,99.70
2022-09-28T13:08:17.255Z,99.00
2022-09-28T13:13:59.992Z,99.90
2022-09-28T13:19:08.312Z,99.90
2022-09-28T13:24:31.481Z,99.90
2022-09-28T13:34:41.980Z,99.90
2022-09-28T13:39:55.332Z,99.40
2022-09-28T13:45:15.774Z,99.10
2022-09-28T13:50:53.349Z,98.80
2022-09-28T13:56:01.974Z,99.30
2022-09-28T14:01:16.254Z,99.90
2022-09-28T14:06:22.881Z,99.90
2022-09-28T14:11:42.525Z,99.90
2022-09-28T14:16:44.756Z,99.90
2022-09-28T14:21:49.528Z,99.90
2022-09-28T14:27:23.355Z,99.90
2022-09-28T14:32:33.126Z,99.90
2022-09-28T14:37:57.327Z,99.90
2022-09-28T14:43:24.704Z,99.90
2022-09-28T14:48:49.288Z,99.90
2022-09-28T14:53:56.383Z,99.90
2022-09-28T14:58:58.777Z,99.90
2022-09-28T15:04:04.753Z,99.90
2022-09-28T15:09:25.968Z,99.90
2022-09-28T15:14:33.336Z,99.90
2022-09-28T15:20:12.470Z,99.90
2022-09-28T15:25:20.692Z,99.90
2022-09-28T15:30:41.034Z,99.90
2022-09-28T15:35:47.592Z,99.90
2022-09-28T15:40:50.673Z,99.90
2022-09-28T15:46:06.683Z,99.90
2022-09-28T15:51:11.896Z,99.90
2022-09-28T15:56:14.343Z,99.90
2022-09-28T16:01:36.841Z,99.90
2022-09-28T16:06:41.239Z,99.90
2022-09-28T16:11:43.728Z,99.90
2022-09-28T16:16:57.017Z,99.90
2022-09-28T16:21:59.768Z,99.90
2022-09-28T16:27:05.228Z,99.90
2022-09-28T16:32:26.046Z,99.90
2022-09-28T16:37:33.898Z,99.90
2022-09-28T16:42:37.575Z,99.90
2022-09-28T16:47:43.246Z,99.90
2022-09-28T16:53:04.278Z,99.90
2022-09-28T16:58:07.577Z,99.90
2022-09-28T17:03:16.818Z,99.90
2022-09-28T17:08:22.506Z,99.90
2022-09-28T17:13:31.753Z,99.90
2022-09-28T17:18:37.607Z,99.90
2022-09-28T17:23:42.869Z,99.90
2022-09-28T17:28:47.734Z,99.90
2022-09-28T17:33:50.405Z,99.90
2022-09-28T17:38:52.997Z,99.90
2022-09-28T17:43:56.405Z,99.90
2022-09-28T17:49:01.255Z,99.90
2022-09-28T17:54:08.320Z,99.90
2022-09-28T17:59:14.644Z,99.90
2022-09-28T18:04:39.871Z,99.90
2022-09-28T18:09:40.708Z,99.90
2022-09-28T18:14:43.194Z,99.90
2022-09-28T18:19:46.716Z,99.90
2022-09-28T18:24:49.206Z,99.90
2022-09-28T18:29:51.690Z,99.90
2022-09-28T18:34:54.289Z,99.90
2022-09-28T18:39:57.084Z,99.90
2022-09-28T18:45:06.025Z,99.90
2022-09-28T18:50:09.021Z,99.90
2022-09-28T18:55:12.438Z,99.90
2022-09-28T19:00:15.954Z,99.90
2022-09-28T19:05:19.872Z,99.90
2022-09-28T19:10:22.877Z,99.90
2022-09-28T19:15:28.668Z,99.90
2022-09-28T19:20:33.488Z,99.90
2022-09-28T19:25:38.953Z,99.90
2022-09-28T19:30:42.340Z,99.90
2022-09-28T19:35:44.746Z,99.90
2022-09-28T19:40:48.287Z,99.90
2022-09-28T19:45:52.822Z,99.90
2022-09-28T19:51:06.563Z,99.90
2022-09-28T19:56:09.146Z,99.90
2022-09-28T20:01:12.428Z,99.90
2022-09-28T20:06:17.319Z,99.90
2022-09-28T20:11:21.029Z,99.90
2022-09-28T20:16:24.837Z,99.90
2022-09-28T20:21:28.251Z,99.90
2022-09-28T20:26:30.744Z,99.90
2022-09-28T20:31:36.360Z,99.90
2022-09-28T20:36:40.344Z,99.90
2022-09-28T20:41:43.588Z,99.90
2022-09-28T20:46:49.559Z,99.90
2022-09-28T20:51:52.955Z,99.90
2022-09-28T20:56:55.534Z,99.90
2022-09-28T21:01:58.513Z,99.90
2022-09-28T21:07:01.032Z,99.90
2022-09-28T21:12:04.850Z,99.90
2022-09-28T21:17:09.198Z,99.90
2022-09-28T21:22:11.673Z,99.90
2022-09-28T21:27:13.472Z,99.90
2022-09-28T21:32:15.291Z,99.90
2022-09-28T21:37:17.213Z,99.90
2022-09-28T21:42:18.988Z,99.90
2022-09-28T21:47:20.810Z,99.90
2022-09-28T21:52:22.651Z,99.90
2022-09-28T21:57:24.460Z,99.90
2022-09-28T22:02:26.308Z,99.90
2022-09-28T22:07:28.119Z,99.90
2022-09-28T22:12:30.321Z,99.90
2022-09-28T22:17:32.158Z,99.90
2022-09-28T22:22:33.971Z,99.90
2022-09-28T22:27:35.755Z,99.90
2022-09-28T22:32:37.579Z,99.90
2022-09-28T22:37:39.372Z,99.90
2022-09-28T22:42:41.255Z,99.90
2022-09-28T22:47:43.059Z,99.90
2022-09-28T22:52:44.844Z,99.90
2022-09-28T22:57:46.646Z,99.90
2022-09-28T23:02:48.497Z,99.90
2022-09-28T23:07:50.446Z,99.90
2022-09-28T23:12:55.747Z,99.90
2022-09-28T23:17:57.544Z,99.90
2022-09-28T23:22:59.374Z,99.90
2022-09-28T23:28:01.518Z,99.90
2022-09-28T23:33:03.385Z,99.90
2022-09-28T23:38:05.275Z,99.90
2022-09-28T23:43:07.889Z,99.90
2022-09-28T23:48:10.161Z,99.90
2022-09-28T23:53:16.396Z,99.90
2022-09-28T23:58:18.180Z,99.90
